sensor_id;sensor_type;location;lat;lon;timestamp;P1;durP1;ratioP1;P2;durP2;ratioP2
8462;SDS011;4268;52.506;13.462;2022-08-01T00:01:37;3.87;;;3.57;;
8462;SDS011;4268;52.506;13.462;2022-08-01T00:04:02;3.93;;;3.63;;
8462;SDS011;4268;52.506;13.462;2022-08-01T00:06:29;4.03;;;3.77;;
8462;SDS011;4268;52.506;13.462;2022-08-01T00:08:55;4.00;;;3.60;;
8462;SDS011;4268;52.506;13.462;2022-08-01T00:11:20;4.57;;;3.60;;
8462;SDS011;4268;52.506;13.462;2022-08-01T00:13:46;3.77;;;3.47;;
8462;SDS011;4268;52.506;13.462;2022-08-01T00:16:12;3.90;;;3.70;;
8462;SDS011;4268;52.506;13.462;2022-08-01T00:18:37;3.70;;;3.50;;
8462;SDS011;4268;52.506;13.462;2022-08-01T00:21:03;3.83;;;3.53;;
8462;SDS011;4268;52.506;13.462;2022-08-01T00:23:29;3.80;;;3.50;;
8462;SDS011;4268;52.506;13.462;2022-08-01T00:25:56;4.00;;;3.70;;
8462;SDS011;4268;52.506;13.462;2022-08-01T00:28:21;3.90;;;3.60;;
8462;SDS011;4268;52.506;13.462;2022-08-01T00:30:47;4.30;;;3.90;;
8462;SDS011;4268;52.506;13.462;2022-08-01T00:33:12;3.90;;;3.60;;
8462;SDS011;4268;52.506;13.462;2022-08-01T00:35:38;4.00;;;3.70;;
8462;SDS011;4268;52.506;13.462;2022-08-01T00:38:03;4.33;;;3.60;;
8462;SDS011;4268;52.506;13.462;2022-08-01T00:40:29;3.77;;;3.47;;
8462;SDS011;4268;52.506;13.462;2022-08-01T00:42:54;3.73;;;3.50;;
8462;SDS011;4268;52.506;13.462;2022-08-01T00:45:20;4.07;;;3.77;;
8462;SDS011;4268;52.506;13.462;2022-08-01T00:47:45;4.00;;;3.70;;
8462;SDS011;4268;52.506;13.462;2022-08-01T00:50:11;3.90;;;3.60;;
8462;SDS011;4268;52.506;13.462;2022-08-01T00:52:37;4.00;;;3.70;;
8462;SDS011;4268;52.506;13.462;2022-08-01T00:55:05;3.83;;;3.57;;
8462;SDS011;4268;52.506;13.462;2022-08-01T00:57:30;4.47;;;4.00;;
8462;SDS011;4268;52.506;13.462;2022-08-01T00:59:56;4.00;;;3.70;;
8462;SDS011;4268;52.506;13.462;2022-08-01T01:02:22;4.33;;;4.03;;
8462;SDS011;4268;52.506;13.462;2022-08-01T01:04:47;4.93;;;4.47;;
8462;SDS011;4268;52.506;13.462;2022-08-01T01:07:21;5.27;;;4.97;;
8462;SDS011;4268;52.506;13.462;2022-08-01T01:12:43;4.90;;;4.60;;
8462;SDS011;4268;52.506;13.462;2022-08-01T01:15:17;4.70;;;4.40;;
8462;SDS011;4268;52.506;13.462;2022-08-01T01:17:58;4.90;;;4.60;;
8462;SDS011;4268;52.506;13.462;2022-08-01T01:20:30;4.40;;;4.20;;
8462;SDS011;4268;52.506;13.462;2022-08-01T01:23:06;4.50;;;4.20;;
8462;SDS011;4268;52.506;13.462;2022-08-01T01:26:01;4.20;;;3.97;;
8462;SDS011;4268;52.506;13.462;2022-08-01T01:28:52;4.20;;;3.90;;
8462;SDS011;4268;52.506;13.462;2022-08-01T01:31:26;4.20;;;3.90;;
8462;SDS011;4268;52.506;13.462;2022-08-01T01:33:54;4.30;;;4.00;;
8462;SDS011;4268;52.506;13.462;2022-08-01T01:36:22;4.17;;;3.90;;
8462;SDS011;4268;52.506;13.462;2022-08-01T01:38:50;4.23;;;3.97;;
8462;SDS011;4268;52.506;13.462;2022-08-01T01:41:17;4.63;;;3.93;;
8462;SDS011;4268;52.506;13.462;2022-08-01T01:43:43;4.40;;;4.10;;
8462;SDS011;4268;52.506;13.462;2022-08-01T01:46:11;4.23;;;3.93;;
8462;SDS011;4268;52.506;13.462;2022-08-01T01:48:38;4.60;;;4.30;;
8462;SDS011;4268;52.506;13.462;2022-08-01T01:51:05;4.50;;;4.20;;
8462;SDS011;4268;52.506;13.462;2022-08-01T01:53:32;4.40;;;4.10;;
8462;SDS011;4268;52.506;13.462;2022-08-01T01:55:59;4.50;;;4.20;;
8462;SDS011;4268;52.506;13.462;2022-08-01T01:58:26;4.53;;;4.23;;
8462;SDS011;4268;52.506;13.462;2022-08-01T02:00:53;4.10;;;3.80;;
8462;SDS011;4268;52.506;13.462;2022-08-01T02:03:21;4.20;;;3.90;;
8462;SDS011;4268;52.506;13.462;2022-08-01T02:05:49;4.20;;;3.90;;
8462;SDS011;4268;52.506;13.462;2022-08-01T02:08:17;4.03;;;3.77;;
8462;SDS011;4268;52.506;13.462;2022-08-01T02:10:44;4.40;;;4.10;;
8462;SDS011;4268;52.506;13.462;2022-08-01T02:13:34;4.10;;;3.80;;
8462;SDS011;4268;52.506;13.462;2022-08-01T02:16:02;4.30;;;3.90;;
8462;SDS011;4268;52.506;13.462;2022-08-01T02:18:29;4.30;;;4.00;;
8462;SDS011;4268;52.506;13.462;2022-08-01T02:20:55;4.43;;;4.13;;
8462;SDS011;4268;52.506;13.462;2022-08-01T02:23:23;4.07;;;3.77;;
8462;SDS011;4268;52.506;13.462;2022-08-01T02:25:53;4.40;;;4.10;;
8462;SDS011;4268;52.506;13.462;2022-08-01T02:28:21;4.00;;;3.80;;
8462;SDS011;4268;52.506;13.462;2022-08-01T02:30:53;3.97;;;3.63;;
8462;SDS011;4268;52.506;13.462;2022-08-01T02:33:23;4.40;;;3.80;;
8462;SDS011;4268;52.506;13.462;2022-08-01T02:35:53;4.10;;;3.80;;
8462;SDS011;4268;52.506;13.462;2022-08-01T02:38:23;4.40;;;4.10;;
8462;SDS011;4268;52.506;13.462;2022-08-01T02:40:52;4.47;;;4.17;;
8462;SDS011;4268;52.506;13.462;2022-08-01T02:43:23;4.50;;;4.20;;
8462;SDS011;4268;52.506;13.462;2022-08-01T02:45:53;4.43;;;4.07;;
8462;SDS011;4268;52.506;13.462;2022-08-01T02:48:20;4.40;;;4.10;;
8462;SDS011;4268;52.506;13.462;2022-08-01T02:50:47;4.60;;;4.30;;
8462;SDS011;4268;52.506;13.462;2022-08-01T02:53:16;4.70;;;4.30;;
8462;SDS011;4268;52.506;13.462;2022-08-01T02:55:44;4.17;;;3.93;;
8462;SDS011;4268;52.506;13.462;2022-08-01T02:58:12;4.50;;;4.20;;
8462;SDS011;4268;52.506;13.462;2022-08-01T03:00:40;4.80;;;4.50;;
8462;SDS011;4268;52.506;13.462;2022-08-01T03:03:08;4.60;;;4.30;;
8462;SDS011;4268;52.506;13.462;2022-08-01T03:05:34;4.80;;;4.50;;
8462;SDS011;4268;52.506;13.462;2022-08-01T03:08:00;5.00;;;4.60;;
8462;SDS011;4268;52.506;13.462;2022-08-01T03:10:27;4.73;;;4.53;;
8462;SDS011;4268;52.506;13.462;2022-08-01T03:12:54;4.83;;;4.53;;
8462;SDS011;4268;52.506;13.462;2022-08-01T03:15:22;5.10;;;4.80;;
8462;SDS011;4268;52.506;13.462;2022-08-01T03:17:49;5.40;;;5.00;;
8462;SDS011;4268;52.506;13.462;2022-08-01T03:20:17;4.90;;;4.60;;
8462;SDS011;4268;52.506;13.462;2022-08-01T03:22:45;5.30;;;4.90;;
8462;SDS011;4268;52.506;13.462;2022-08-01T03:25:14;5.27;;;4.87;;
8462;SDS011;4268;52.506;13.462;2022-08-01T03:27:42;4.97;;;4.67;;
8462;SDS011;4268;52.506;13.462;2022-08-01T03:30:10;5.20;;;4.90;;
8462;SDS011;4268;52.506;13.462;2022-08-01T03:32:36;5.10;;;4.80;;
8462;SDS011;4268;52.506;13.462;2022-08-01T03:35:03;5.63;;;5.23;;
8462;SDS011;4268;52.506;13.462;2022-08-01T03:37:40;5.40;;;5.10;;
8462;SDS011;4268;52.506;13.462;2022-08-01T03:40:11;5.03;;;4.73;;
8462;SDS011;4268;52.506;13.462;2022-08-01T03:42:50;5.50;;;5.20;;
8462;SDS011;4268;52.506;13.462;2022-08-01T03:45:24;5.50;;;5.00;;
8462;SDS011;4268;52.506;13.462;2022-08-01T03:47:53;5.20;;;4.90;;
8462;SDS011;4268;52.506;13.462;2022-08-01T03:50:24;5.17;;;4.87;;
8462;SDS011;4268;52.506;13.462;2022-08-01T03:52:51;5.63;;;5.10;;
8462;SDS011;4268;52.506;13.462;2022-08-01T03:55:18;5.60;;;5.10;;
8462;SDS011;4268;52.506;13.462;2022-08-01T03:57:46;5.50;;;5.10;;
8462;SDS011;4268;52.506;13.462;2022-08-01T04:00:13;5.50;;;5.10;;
8462;SDS011;4268;52.506;13.462;2022-08-01T04:02:43;4.93;;;4.63;;
8462;SDS011;4268;52.506;13.462;2022-08-01T04:05:10;5.53;;;5.13;;
8462;SDS011;4268;52.506;13.462;2022-08-01T04:07:36;5.23;;;4.83;;
8462;SDS011;4268;52.506;13.462;2022-08-01T04:10:03;5.10;;;4.70;;
8462;SDS011;4268;52.506;13.462;2022-08-01T04:12:29;5.43;;;5.13;;
8462;SDS011;4268;52.506;13.462;2022-08-01T04:14:55;5.37;;;4.97;;
8462;SDS011;4268;52.506;13.462;2022-08-01T04:17:21;5.17;;;4.77;;
8462;SDS011;4268;52.506;13.462;2022-08-01T04:19:46;5.70;;;5.30;;
8462;SDS011;4268;52.506;13.462;2022-08-01T04:22:13;5.93;;;5.50;;
8462;SDS011;4268;52.506;13.462;2022-08-01T04:24:40;5.97;;;5.57;;
8462;SDS011;4268;52.506;13.462;2022-08-01T04:27:09;5.77;;;5.37;;
8462;SDS011;4268;52.506;13.462;2022-08-01T04:29:38;6.90;;;6.40;;
8462;SDS011;4268;52.506;13.462;2022-08-01T04:32:06;7.43;;;6.93;;
8462;SDS011;4268;52.506;13.462;2022-08-01T04:34:35;7.13;;;6.63;;
8462;SDS011;4268;52.506;13.462;2022-08-01T04:37:04;8.43;;;7.83;;
8462;SDS011;4268;52.506;13.462;2022-08-01T04:39:32;9.00;;;8.30;;
8462;SDS011;4268;52.506;13.462;2022-08-01T04:42:01;8.77;;;8.07;;
8462;SDS011;4268;52.506;13.462;2022-08-01T04:44:29;8.97;;;8.27;;
8462;SDS011;4268;52.506;13.462;2022-08-01T04:46:57;8.87;;;8.23;;
8462;SDS011;4268;52.506;13.462;2022-08-01T04:49:24;9.50;;;8.80;;
8462;SDS011;4268;52.506;13.462;2022-08-01T04:51:50;10.40;;;9.57;;
8462;SDS011;4268;52.506;13.462;2022-08-01T04:54:22;10.07;;;9.37;;
8462;SDS011;4268;52.506;13.462;2022-08-01T04:56:49;15.57;;;14.57;;
8462;SDS011;4268;52.506;13.462;2022-08-01T04:59:15;10.03;;;9.23;;
8462;SDS011;4268;52.506;13.462;2022-08-01T05:01:59;9.67;;;8.97;;
8462;SDS011;4268;52.506;13.462;2022-08-01T05:04:25;11.00;;;10.20;;
8462;SDS011;4268;52.506;13.462;2022-08-01T05:06:50;10.10;;;9.40;;
8462;SDS011;4268;52.506;13.462;2022-08-01T05:09:16;9.70;;;8.90;;
8462;SDS011;4268;52.506;13.462;2022-08-01T05:11:41;9.53;;;8.93;;
8462;SDS011;4268;52.506;13.462;2022-08-01T05:14:06;9.47;;;8.77;;
8462;SDS011;4268;52.506;13.462;2022-08-01T05:16:32;11.87;;;11.07;;
8462;SDS011;4268;52.506;13.462;2022-08-01T05:18:57;10.73;;;10.03;;
8462;SDS011;4268;52.506;13.462;2022-08-01T05:21:23;11.33;;;10.60;;
8462;SDS011;4268;52.506;13.462;2022-08-01T05:23:48;12.17;;;11.37;;
8462;SDS011;4268;52.506;13.462;2022-08-01T05:26:14;12.67;;;11.87;;
8462;SDS011;4268;52.506;13.462;2022-08-01T05:28:39;13.30;;;12.40;;
8462;SDS011;4268;52.506;13.462;2022-08-01T05:31:05;13.33;;;12.43;;
8462;SDS011;4268;52.506;13.462;2022-08-01T05:33:30;13.80;;;12.90;;
8462;SDS011;4268;52.506;13.462;2022-08-01T05:35:56;12.93;;;12.13;;
8462;SDS011;4268;52.506;13.462;2022-08-01T05:38:21;11.60;;;10.80;;
8462;SDS011;4268;52.506;13.462;2022-08-01T05:40:47;11.80;;;11.07;;
8462;SDS011;4268;52.506;13.462;2022-08-01T05:43:12;9.60;;;9.00;;
8462;SDS011;4268;52.506;13.462;2022-08-01T05:45:38;9.87;;;9.27;;
8462;SDS011;4268;52.506;13.462;2022-08-01T05:48:03;9.23;;;8.60;;
8462;SDS011;4268;52.506;13.462;2022-08-01T05:50:29;8.63;;;8.13;;
8462;SDS011;4268;52.506;13.462;2022-08-01T05:52:54;9.23;;;8.43;;
8462;SDS011;4268;52.506;13.462;2022-08-01T05:55:20;8.87;;;8.20;;
8462;SDS011;4268;52.506;13.462;2022-08-01T05:57:45;8.33;;;7.73;;
8462;SDS011;4268;52.506;13.462;2022-08-01T06:00:11;8.10;;;7.50;;
8462;SDS011;4268;52.506;13.462;2022-08-01T06:02:41;7.63;;;7.03;;
8462;SDS011;4268;52.506;13.462;2022-08-01T06:05:07;7.53;;;7.03;;
8462;SDS011;4268;52.506;13.462;2022-08-01T06:07:33;7.63;;;6.83;;
8462;SDS011;4268;52.506;13.462;2022-08-01T06:09:59;6.67;;;6.10;;
8462;SDS011;4268;52.506;13.462;2022-08-01T06:12:24;6.70;;;6.20;;
8462;SDS011;4268;52.506;13.462;2022-08-01T06:14:50;6.10;;;5.70;;
8462;SDS011;4268;52.506;13.462;2022-08-01T06:17:15;6.40;;;6.00;;
8462;SDS011;4268;52.506;13.462;2022-08-01T06:19:41;6.37;;;5.97;;
8462;SDS011;4268;52.506;13.462;2022-08-01T06:22:06;6.23;;;5.83;;
8462;SDS011;4268;52.506;13.462;2022-08-01T06:24:32;6.40;;;5.90;;
8462;SDS011;4268;52.506;13.462;2022-08-01T06:26:57;5.70;;;5.30;;
8462;SDS011;4268;52.506;13.462;2022-08-01T06:29:23;6.23;;;5.73;;
8462;SDS011;4268;52.506;13.462;2022-08-01T06:31:49;6.23;;;5.80;;
8462;SDS011;4268;52.506;13.462;2022-08-01T06:34:14;6.70;;;6.20;;
8462;SDS011;4268;52.506;13.462;2022-08-01T06:36:40;6.03;;;5.53;;
8462;SDS011;4268;52.506;13.462;2022-08-01T06:39:06;6.27;;;5.80;;
8462;SDS011;4268;52.506;13.462;2022-08-01T06:41:31;5.93;;;5.53;;
8462;SDS011;4268;52.506;13.462;2022-08-01T06:43:57;6.93;;;6.37;;
8462;SDS011;4268;52.506;13.462;2022-08-01T06:46:24;5.93;;;5.53;;
8462;SDS011;4268;52.506;13.462;2022-08-01T06:48:50;5.47;;;5.17;;
8462;SDS011;4268;52.506;13.462;2022-08-01T06:51:15;5.30;;;4.67;;
8462;SDS011;4268;52.506;13.462;2022-08-01T06:53:44;4.73;;;4.33;;
8462;SDS011;4268;52.506;13.462;2022-08-01T06:56:10;4.60;;;4.30;;
8462;SDS011;4268;52.506;13.462;2022-08-01T06:58:36;4.10;;;3.90;;
8462;SDS011;4268;52.506;13.462;2022-08-01T07:01:02;3.90;;;3.60;;
8462;SDS011;4268;52.506;13.462;2022-08-01T07:03:30;4.00;;;3.80;;
8462;SDS011;4268;52.506;13.462;2022-08-01T07:05:56;4.10;;;3.90;;
8462;SDS011;4268;52.506;13.462;2022-08-01T07:08:22;4.50;;;4.10;;
8462;SDS011;4268;52.506;13.462;2022-08-01T07:10:47;4.50;;;4.20;;
8462;SDS011;4268;52.506;13.462;2022-08-01T07:13:13;8.60;;;7.87;;
8462;SDS011;4268;52.506;13.462;2022-08-01T07:15:41;4.97;;;4.60;;
8462;SDS011;4268;52.506;13.462;2022-08-01T07:18:06;4.27;;;3.97;;
8462;SDS011;4268;52.506;13.462;2022-08-01T07:20:32;7.57;;;7.17;;
8462;SDS011;4268;52.506;13.462;2022-08-01T07:22:57;3.83;;;3.63;;
8462;SDS011;4268;52.506;13.462;2022-08-01T07:25:23;4.40;;;3.93;;
8462;SDS011;4268;52.506;13.462;2022-08-01T07:27:48;4.30;;;4.00;;
8462;SDS011;4268;52.506;13.462;2022-08-01T07:30:14;3.90;;;3.67;;
8462;SDS011;4268;52.506;13.462;2022-08-01T07:32:39;4.17;;;3.97;;
8462;SDS011;4268;52.506;13.462;2022-08-01T07:35:05;3.87;;;3.67;;
8462;SDS011;4268;52.506;13.462;2022-08-01T07:37:31;3.90;;;3.70;;
8462;SDS011;4268;52.506;13.462;2022-08-01T07:39:56;4.10;;;3.80;;
8462;SDS011;4268;52.506;13.462;2022-08-01T07:42:22;4.30;;;4.10;;
8462;SDS011;4268;52.506;13.462;2022-08-01T07:44:47;3.73;;;3.53;;
8462;SDS011;4268;52.506;13.462;2022-08-01T07:47:13;3.50;;;3.40;;
8462;SDS011;4268;52.506;13.462;2022-08-01T07:49:38;4.10;;;3.80;;
8462;SDS011;4268;52.506;13.462;2022-08-01T07:52:04;4.37;;;4.10;;
8462;SDS011;4268;52.506;13.462;2022-08-01T07:54:33;4.40;;;4.10;;
8462;SDS011;4268;52.506;13.462;2022-08-01T07:56:58;4.47;;;4.17;;
8462;SDS011;4268;52.506;13.462;2022-08-01T07:59:24;3.93;;;3.73;;
8462;SDS011;4268;52.506;13.462;2022-08-01T08:01:50;4.07;;;3.73;;
8462;SDS011;4268;52.506;13.462;2022-08-01T08:04:16;3.97;;;3.67;;
8462;SDS011;4268;52.506;13.462;2022-08-01T08:06:42;4.40;;;4.00;;
8462;SDS011;4268;52.506;13.462;2022-08-01T08:09:09;3.63;;;3.43;;
8462;SDS011;4268;52.506;13.462;2022-08-01T08:11:35;4.03;;;3.83;;
8462;SDS011;4268;52.506;13.462;2022-08-01T08:14:00;3.80;;;3.60;;
8462;SDS011;4268;52.506;13.462;2022-08-01T08:16:26;4.53;;;4.13;;
8462;SDS011;4268;52.506;13.462;2022-08-01T08:18:51;4.10;;;3.90;;
8462;SDS011;4268;52.506;13.462;2022-08-01T08:21:17;4.07;;;3.87;;
8462;SDS011;4268;52.506;13.462;2022-08-01T08:23:42;4.37;;;4.07;;
8462;SDS011;4268;52.506;13.462;2022-08-01T08:26:26;4.40;;;4.10;;
8462;SDS011;4268;52.506;13.462;2022-08-01T08:28:52;5.07;;;4.67;;
8462;SDS011;4268;52.506;13.462;2022-08-01T08:31:17;4.60;;;4.30;;
8462;SDS011;4268;52.506;13.462;2022-08-01T08:33:43;4.87;;;4.57;;
8462;SDS011;4268;52.506;13.462;2022-08-01T08:36:08;4.63;;;4.23;;
8462;SDS011;4268;52.506;13.462;2022-08-01T08:38:35;4.60;;;4.30;;
8462;SDS011;4268;52.506;13.462;2022-08-01T08:41:01;4.60;;;4.30;;
8462;SDS011;4268;52.506;13.462;2022-08-01T08:43:27;4.73;;;4.33;;
8462;SDS011;4268;52.506;13.462;2022-08-01T08:45:52;4.30;;;4.00;;
8462;SDS011;4268;52.506;13.462;2022-08-01T08:48:18;3.70;;;3.40;;
8462;SDS011;4268;52.506;13.462;2022-08-01T08:50:44;4.10;;;3.70;;
8462;SDS011;4268;52.506;13.462;2022-08-01T08:53:11;3.97;;;3.67;;
8462;SDS011;4268;52.506;13.462;2022-08-01T08:55:39;4.03;;;3.73;;
8462;SDS011;4268;52.506;13.462;2022-08-01T08:58:07;4.30;;;3.90;;
8462;SDS011;4268;52.506;13.462;2022-08-01T09:00:40;3.80;;;3.60;;
8462;SDS011;4268;52.506;13.462;2022-08-01T09:03:06;3.80;;;3.60;;
8462;SDS011;4268;52.506;13.462;2022-08-01T09:05:32;4.07;;;3.87;;
8462;SDS011;4268;52.506;13.462;2022-08-01T09:07:57;3.97;;;3.77;;
8462;SDS011;4268;52.506;13.462;2022-08-01T09:10:23;3.90;;;3.70;;
8462;SDS011;4268;52.506;13.462;2022-08-01T09:13:02;3.87;;;3.53;;
8462;SDS011;4268;52.506;13.462;2022-08-01T09:15:41;3.93;;;3.53;;
8462;SDS011;4268;52.506;13.462;2022-08-01T09:20:56;3.10;;;2.90;;
8462;SDS011;4268;52.506;13.462;2022-08-01T09:23:52;2.67;;;2.57;;
8462;SDS011;4268;52.506;13.462;2022-08-01T09:26:20;2.80;;;2.70;;
8462;SDS011;4268;52.506;13.462;2022-08-01T09:28:52;2.80;;;2.70;;
8462;SDS011;4268;52.506;13.462;2022-08-01T09:31:18;3.53;;;2.43;;
8462;SDS011;4268;52.506;13.462;2022-08-01T09:33:47;2.00;;;2.00;;
8462;SDS011;4268;52.506;13.462;2022-08-01T09:36:19;2.40;;;2.30;;
8462;SDS011;4268;52.506;13.462;2022-08-01T09:38:49;2.47;;;2.27;;
8462;SDS011;4268;52.506;13.462;2022-08-01T09:41:16;2.40;;;2.30;;
8462;SDS011;4268;52.506;13.462;2022-08-01T09:43:52;2.50;;;2.40;;
8462;SDS011;4268;52.506;13.462;2022-08-01T09:46:18;2.40;;;2.30;;
8462;SDS011;4268;52.506;13.462;2022-08-01T09:48:56;2.40;;;2.30;;
8462;SDS011;4268;52.506;13.462;2022-08-01T09:51:31;2.30;;;2.20;;
8462;SDS011;4268;52.506;13.462;2022-08-01T09:54:04;2.53;;;2.33;;
8462;SDS011;4268;52.506;13.462;2022-08-01T09:56:41;2.60;;;2.50;;
8462;SDS011;4268;52.506;13.462;2022-08-01T09:59:08;3.10;;;2.90;;
8462;SDS011;4268;52.506;13.462;2022-08-01T10:01:44;2.70;;;2.60;;
8462;SDS011;4268;52.506;13.462;2022-08-01T10:04:12;2.80;;;2.70;;
8462;SDS011;4268;52.506;13.462;2022-08-01T10:06:44;3.03;;;2.90;;
8462;SDS011;4268;52.506;13.462;2022-08-01T10:09:27;2.87;;;2.77;;
8462;SDS011;4268;52.506;13.462;2022-08-01T10:11:56;3.00;;;2.80;;
8462;SDS011;4268;52.506;13.462;2022-08-01T10:14:25;2.83;;;2.73;;
8462;SDS011;4268;52.506;13.462;2022-08-01T10:16:52;2.83;;;2.73;;
8462;SDS011;4268;52.506;13.462;2022-08-01T10:19:19;2.97;;;2.70;;
8462;SDS011;4268;52.506;13.462;2022-08-01T10:21:47;3.50;;;3.30;;
8462;SDS011;4268;52.506;13.462;2022-08-01T10:24:16;3.27;;;3.07;;
8462;SDS011;4268;52.506;13.462;2022-08-01T10:26:44;3.17;;;3.07;;
8462;SDS011;4268;52.506;13.462;2022-08-01T10:29:14;3.03;;;2.93;;
8462;SDS011;4268;52.506;13.462;2022-08-01T10:31:43;2.70;;;2.60;;
8462;SDS011;4268;52.506;13.462;2022-08-01T10:34:10;2.93;;;2.83;;
8462;SDS011;4268;52.506;13.462;2022-08-01T10:36:37;2.90;;;2.80;;
8462;SDS011;4268;52.506;13.462;2022-08-01T10:39:04;2.83;;;2.73;;
8462;SDS011;4268;52.506;13.462;2022-08-01T10:41:32;3.17;;;2.70;;
8462;SDS011;4268;52.506;13.462;2022-08-01T10:44:00;2.93;;;2.73;;
8462;SDS011;4268;52.506;13.462;2022-08-01T10:46:26;2.83;;;2.63;;
8462;SDS011;4268;52.506;13.462;2022-08-01T10:51:27;2.50;;;2.30;;
8462;SDS011;4268;52.506;13.462;2022-08-01T10:53:53;2.70;;;2.60;;
8462;SDS011;4268;52.506;13.462;2022-08-01T10:56:20;2.73;;;2.53;;
8462;SDS011;4268;52.506;13.462;2022-08-01T10:58:47;2.80;;;2.70;;
8462;SDS011;4268;52.506;13.462;2022-08-01T11:03:39;2.83;;;2.50;;
8462;SDS011;4268;52.506;13.462;2022-08-01T11:06:06;2.70;;;2.60;;
8462;SDS011;4268;52.506;13.462;2022-08-01T11:08:33;2.50;;;2.40;;
8462;SDS011;4268;52.506;13.462;2022-08-01T11:11:02;2.57;;;2.47;;
8462;SDS011;4268;52.506;13.462;2022-08-01T11:16:30;2.60;;;2.50;;
8462;SDS011;4268;52.506;13.462;2022-08-01T11:18:56;2.70;;;2.50;;
8462;SDS011;4268;52.506;13.462;2022-08-01T11:21:27;2.30;;;2.20;;
8462;SDS011;4268;52.506;13.462;2022-08-01T11:24:33;2.40;;;2.20;;
8462;SDS011;4268;52.506;13.462;2022-08-01T11:30:21;2.97;;;2.77;;
8462;SDS011;4268;52.506;13.462;2022-08-01T11:32:48;2.40;;;2.30;;
8462;SDS011;4268;52.506;13.462;2022-08-01T11:35:15;2.20;;;2.10;;
8462;SDS011;4268;52.506;13.462;2022-08-01T11:37:41;3.03;;;2.83;;
8462;SDS011;4268;52.506;13.462;2022-08-01T11:40:14;2.90;;;2.67;;
8462;SDS011;4268;52.506;13.462;2022-08-01T11:42:40;3.27;;;2.97;;
8462;SDS011;4268;52.506;13.462;2022-08-01T11:45:06;3.00;;;2.80;;
8462;SDS011;4268;52.506;13.462;2022-08-01T11:47:42;2.60;;;2.50;;
8462;SDS011;4268;52.506;13.462;2022-08-01T11:50:29;3.13;;;2.93;;
8462;SDS011;4268;52.506;13.462;2022-08-01T11:52:59;3.30;;;3.10;;
8462;SDS011;4268;52.506;13.462;2022-08-01T11:55:29;3.57;;;3.30;;
8462;SDS011;4268;52.506;13.462;2022-08-01T11:57:59;2.87;;;2.67;;
8462;SDS011;4268;52.506;13.462;2022-08-01T12:00:29;2.50;;;2.40;;
8462;SDS011;4268;52.506;13.462;2022-08-01T12:02:56;2.60;;;2.47;;
8462;SDS011;4268;52.506;13.462;2022-08-01T12:05:27;2.50;;;2.40;;
8462;SDS011;4268;52.506;13.462;2022-08-01T12:07:54;2.70;;;2.60;;
8462;SDS011;4268;52.506;13.462;2022-08-01T12:10:22;2.60;;;2.50;;
8462;SDS011;4268;52.506;13.462;2022-08-01T12:12:53;2.70;;;2.60;;
8462;SDS011;4268;52.506;13.462;2022-08-01T12:15:23;3.13;;;2.93;;
8462;SDS011;4268;52.506;13.462;2022-08-01T12:17:59;2.20;;;2.10;;
8462;SDS011;4268;52.506;13.462;2022-08-01T12:20:32;2.63;;;2.50;;
8462;SDS011;4268;52.506;13.462;2022-08-01T12:23:00;2.40;;;2.30;;
8462;SDS011;4268;52.506;13.462;2022-08-01T12:25:33;1.93;;;1.90;;
8462;SDS011;4268;52.506;13.462;2022-08-01T12:28:00;2.57;;;2.40;;
8462;SDS011;4268;52.506;13.462;2022-08-01T12:30:28;3.40;;;3.10;;
8462;SDS011;4268;52.506;13.462;2022-08-01T12:32:55;2.60;;;2.40;;
8462;SDS011;4268;52.506;13.462;2022-08-01T12:35:25;2.70;;;2.50;;
8462;SDS011;4268;52.506;13.462;2022-08-01T12:37:53;2.30;;;2.20;;
8462;SDS011;4268;52.506;13.462;2022-08-01T12:40:24;2.23;;;2.13;;
8462;SDS011;4268;52.506;13.462;2022-08-01T12:42:52;2.50;;;2.40;;
8462;SDS011;4268;52.506;13.462;2022-08-01T12:45:30;2.30;;;2.10;;
8462;SDS011;4268;52.506;13.462;2022-08-01T12:48:08;2.03;;;1.93;;
8462;SDS011;4268;52.506;13.462;2022-08-01T12:50:36;1.90;;;1.90;;
8462;SDS011;4268;52.506;13.462;2022-08-01T12:53:03;2.43;;;2.33;;
8462;SDS011;4268;52.506;13.462;2022-08-01T12:55:29;2.37;;;2.23;;
8462;SDS011;4268;52.506;13.462;2022-08-01T12:58:14;2.43;;;2.30;;
8462;SDS011;4268;52.506;13.462;2022-08-01T13:00:42;3.33;;;2.30;;
8462;SDS011;4268;52.506;13.462;2022-08-01T13:03:10;2.58;;;2.38;;
8462;SDS011;4268;52.506;13.462;2022-08-01T13:05:50;2.47;;;2.37;;
8462;SDS011;4268;52.506;13.462;2022-08-01T13:08:18;2.27;;;2.10;;
8462;SDS011;4268;52.506;13.462;2022-08-01T13:10:44;2.43;;;2.33;;
8462;SDS011;4268;52.506;13.462;2022-08-01T13:13:11;2.00;;;1.90;;
8462;SDS011;4268;52.506;13.462;2022-08-01T13:15:39;2.07;;;1.97;;
8462;SDS011;4268;52.506;13.462;2022-08-01T13:18:27;2.17;;;2.07;;
8462;SDS011;4268;52.506;13.462;2022-08-01T13:21:10;2.10;;;2.00;;
8462;SDS011;4268;52.506;13.462;2022-08-01T13:23:41;1.97;;;1.97;;
8462;SDS011;4268;52.506;13.462;2022-08-01T13:29:11;2.50;;;2.30;;
8462;SDS011;4268;52.506;13.462;2022-08-01T13:31:38;2.50;;;2.40;;
8462;SDS011;4268;52.506;13.462;2022-08-01T13:34:05;2.80;;;2.60;;
8462;SDS011;4268;52.506;13.462;2022-08-01T13:36:31;2.70;;;2.60;;
8462;SDS011;4268;52.506;13.462;2022-08-01T13:38:58;2.57;;;2.47;;
8462;SDS011;4268;52.506;13.462;2022-08-01T13:41:42;3.10;;;2.90;;
8462;SDS011;4268;52.506;13.462;2022-08-01T13:44:08;2.60;;;2.50;;
8462;SDS011;4268;52.506;13.462;2022-08-01T13:46:35;2.80;;;2.60;;
8462;SDS011;4268;52.506;13.462;2022-08-01T13:49:02;2.40;;;2.30;;
8462;SDS011;4268;52.506;13.462;2022-08-01T13:51:29;2.50;;;2.30;;
8462;SDS011;4268;52.506;13.462;2022-08-01T13:53:54;2.60;;;2.40;;
8462;SDS011;4268;52.506;13.462;2022-08-01T13:56:20;2.60;;;2.50;;
8462;SDS011;4268;52.506;13.462;2022-08-01T13:58:46;2.40;;;2.30;;
8462;SDS011;4268;52.506;13.462;2022-08-01T14:01:12;2.33;;;2.23;;
8462;SDS011;4268;52.506;13.462;2022-08-01T14:03:37;2.37;;;2.27;;
8462;SDS011;4268;52.506;13.462;2022-08-01T14:06:03;2.43;;;2.33;;
8462;SDS011;4268;52.506;13.462;2022-08-01T14:08:29;2.57;;;2.47;;
8462;SDS011;4268;52.506;13.462;2022-08-01T14:10:54;2.80;;;2.60;;
8462;SDS011;4268;52.506;13.462;2022-08-01T14:13:23;3.00;;;2.80;;
8462;SDS011;4268;52.506;13.462;2022-08-01T14:15:49;2.60;;;2.40;;
8462;SDS011;4268;52.506;13.462;2022-08-01T14:18:15;2.50;;;2.40;;
8462;SDS011;4268;52.506;13.462;2022-08-01T14:20:41;2.73;;;2.63;;
8462;SDS011;4268;52.506;13.462;2022-08-01T14:23:07;2.53;;;2.40;;
8462;SDS011;4268;52.506;13.462;2022-08-01T14:25:33;2.70;;;2.50;;
8462;SDS011;4268;52.506;13.462;2022-08-01T14:27:58;2.60;;;2.50;;
8462;SDS011;4268;52.506;13.462;2022-08-01T14:30:24;2.60;;;2.40;;
8462;SDS011;4268;52.506;13.462;2022-08-01T14:32:50;2.50;;;2.40;;
8462;SDS011;4268;52.506;13.462;2022-08-01T14:35:15;2.37;;;2.27;;
8462;SDS011;4268;52.506;13.462;2022-08-01T14:37:41;2.47;;;2.27;;
8462;SDS011;4268;52.506;13.462;2022-08-01T14:40:06;2.40;;;2.30;;
8462;SDS011;4268;52.506;13.462;2022-08-01T14:42:34;2.40;;;2.30;;
8462;SDS011;4268;52.506;13.462;2022-08-01T14:45:00;2.23;;;2.13;;
8462;SDS011;4268;52.506;13.462;2022-08-01T14:47:26;2.23;;;2.13;;
8462;SDS011;4268;52.506;13.462;2022-08-01T14:49:51;2.95;;;2.35;;
8462;SDS011;4268;52.506;13.462;2022-08-01T14:52:17;1.87;;;1.87;;
8462;SDS011;4268;52.506;13.462;2022-08-01T14:54:44;1.83;;;1.83;;
8462;SDS011;4268;52.506;13.462;2022-08-01T14:57:09;2.23;;;2.13;;
8462;SDS011;4268;52.506;13.462;2022-08-01T14:59:35;2.23;;;2.10;;
8462;SDS011;4268;52.506;13.462;2022-08-01T15:02:01;2.03;;;1.90;;
8462;SDS011;4268;52.506;13.462;2022-08-01T15:04:26;2.28;;;2.20;;
8462;SDS011;4268;52.506;13.462;2022-08-01T15:06:52;2.13;;;2.03;;
8462;SDS011;4268;52.506;13.462;2022-08-01T15:09:18;2.10;;;2.00;;
8462;SDS011;4268;52.506;13.462;2022-08-01T15:11:44;2.13;;;2.00;;
8462;SDS011;4268;52.506;13.462;2022-08-01T15:14:11;2.40;;;2.30;;
8462;SDS011;4268;52.506;13.462;2022-08-01T15:16:55;2.30;;;2.20;;
8462;SDS011;4268;52.506;13.462;2022-08-01T15:19:21;2.53;;;2.33;;
8462;SDS011;4268;52.506;13.462;2022-08-01T15:21:46;2.40;;;2.30;;
8462;SDS011;4268;52.506;13.462;2022-08-01T15:24:12;2.30;;;2.20;;
8462;SDS011;4268;52.506;13.462;2022-08-01T15:26:38;2.30;;;2.20;;